createdAt,value
2019-04-06T00:00:44.170Z,8.80
2019-04-06T00:03:14.013Z,8.80
2019-04-06T00:05:43.640Z,8.80
2019-04-06T00:08:13.108Z,8.80
2019-04-06T00:10:42.554Z,8.70
2019-04-06T00:13:11.990Z,8.60
2019-04-06T00:15:41.815Z,8.40
2019-04-06T00:18:11.281Z,8.50
2019-04-06T00:20:40.736Z,8.50
2019-04-06T00:23:10.368Z,8.60
2019-04-06T00:25:44.687Z,8.50
2019-04-06T00:28:11.233Z,8.40
2019-04-06T00:30:57.394Z,8.20
2019-04-06T00:33:27.236Z,8.20
2019-04-06T00:35:58.075Z,8.00
2019-04-06T00:38:27.538Z,8.10
2019-04-06T00:40:57.228Z,8.10
2019-04-06T00:43:26.702Z,8.20
2019-04-06T00:45:56.142Z,8.10
2019-04-06T00:48:25.921Z,8.10
2019-04-06T00:50:55.372Z,8.00
2019-04-06T00:53:24.854Z,8.00
2019-04-06T00:55:55.929Z,8.10
2019-04-06T00:58:25.831Z,8.10
2019-04-06T01:00:55.276Z,8.00
2019-04-06T01:03:24.890Z,7.80
2019-04-06T01:05:54.309Z,7.80
2019-04-06T01:08:23.776Z,7.70
2019-04-06T01:10:53.200Z,7.70
2019-04-06T01:13:22.679Z,7.70
2019-04-06T01:15:52.172Z,7.70
2019-04-06T01:18:21.633Z,7.60
2019-04-06T01:20:51.094Z,7.60
2019-04-06T01:23:21.107Z,7.60
2019-04-06T01:25:50.586Z,7.60
2019-04-06T01:28:20.236Z,7.70
2019-04-06T01:30:49.690Z,7.60
2019-04-06T01:33:19.088Z,7.60
2019-04-06T01:35:48.878Z,7.60
2019-04-06T01:38:18.370Z,7.60
2019-04-06T01:40:47.793Z,7.60
2019-04-06T01:43:17.714Z,7.50
2019-04-06T01:45:47.161Z,7.40
2019-04-06T01:48:16.618Z,7.50
2019-04-06T01:50:46.256Z,7.60
2019-04-06T01:53:15.731Z,7.50
2019-04-06T01:55:45.648Z,7.40
2019-04-06T01:58:15.067Z,7.30
2019-04-06T02:00:58.231Z,7.30
2019-04-06T02:03:27.834Z,7.30
2019-04-06T02:05:57.323Z,7.30
2019-04-06T02:08:26.801Z,7.30
2019-04-06T02:10:56.598Z,7.30
2019-04-06T02:13:26.081Z,7.20
2019-04-06T02:15:55.756Z,7.10
2019-04-06T02:18:25.257Z,7.00
2019-04-06T02:20:54.701Z,7.00
2019-04-06T02:23:24.770Z,7.00
2019-04-06T02:25:54.251Z,7.00
2019-04-06T02:28:24.218Z,6.90
2019-04-06T02:31:04.421Z,6.80
2019-04-06T02:33:46.998Z,6.80
2019-04-06T02:36:31.625Z,6.80
2019-04-06T02:39:18.821Z,6.70
2019-04-06T02:41:52.493Z,6.80
2019-04-06T02:44:21.956Z,6.70
2019-04-06T02:46:51.403Z,6.80
2019-04-06T02:49:21.223Z,6.60
2019-04-06T02:51:50.657Z,6.70
2019-04-06T02:54:20.081Z,6.60
2019-04-06T02:56:49.767Z,6.70
2019-04-06T02:59:19.270Z,6.70
2019-04-06T03:01:49.119Z,6.70
2019-04-06T03:04:18.599Z,6.70
2019-04-06T03:06:48.091Z,6.60
2019-04-06T03:09:17.946Z,6.70
2019-04-06T03:11:47.463Z,6.60
2019-04-06T03:14:16.820Z,6.70
2019-04-06T03:16:46.473Z,6.70
2019-04-06T03:19:15.925Z,6.80
2019-04-06T03:21:45.582Z,6.90
2019-04-06T03:24:15.110Z,6.80
2019-04-06T03:26:59.261Z,6.70
2019-04-06T03:29:15.710Z,6.70
2019-04-06T03:31:45.127Z,6.70
2019-04-06T03:34:20.223Z,6.60
2019-04-06T03:36:46.176Z,6.60
2019-04-06T03:39:15.660Z,6.60
2019-04-06T03:41:46.732Z,6.60
2019-04-06T03:44:16.381Z,6.50
2019-04-06T03:46:45.931Z,6.30
2019-04-06T03:49:15.436Z,6.50
2019-04-06T03:51:45.288Z,6.50
2019-04-06T03:54:14.673Z,6.40
2019-04-06T03:56:44.117Z,6.20
2019-04-06T03:59:16.393Z,6.10
2019-04-06T04:01:45.989Z,6.00
2019-04-06T04:04:15.434Z,5.90
2019-04-06T04:06:45.024Z,5.80
2019-04-06T04:09:15.256Z,5.60
2019-04-06T04:11:45.432Z,5.50
2019-04-06T04:14:16.568Z,5.40
2019-04-06T04:16:46.331Z,5.20
2019-04-06T04:19:15.767Z,5.20
2019-04-06T04:21:45.357Z,5.10
2019-04-06T04:24:14.957Z,5.10
2019-04-06T04:26:44.427Z,5.10
2019-04-06T04:29:13.953Z,5.10
2019-04-06T04:31:43.719Z,5.10
2019-04-06T04:34:13.189Z,5.20
2019-04-06T04:36:42.640Z,5.30
2019-04-06T04:39:12.251Z,5.30
2019-04-06T04:41:41.680Z,5.40
2019-04-06T04:44:11.152Z,5.50
2019-04-06T04:46:40.915Z,5.70
2019-04-06T04:49:10.373Z,5.80
2019-04-06T04:51:40.113Z,5.90
2019-04-06T04:54:09.623Z,6.10
2019-04-06T04:56:39.115Z,6.20
2019-04-06T04:59:08.838Z,6.50
2019-04-06T05:01:38.764Z,6.60
2019-04-06T05:04:08.325Z,6.80
2019-04-06T05:09:08.519Z,7.30
2019-04-06T05:11:38.027Z,7.50
2019-04-06T05:14:43.316Z,7.50
2019-04-06T05:22:11.117Z,8.30
2019-04-06T05:24:40.589Z,8.20
2019-04-06T05:29:40.361Z,8.50
2019-04-06T06:36:46.916Z,14.00
2019-04-06T06:39:16.785Z,14.40
2019-04-06T06:41:46.296Z,14.60
2019-04-06T06:54:13.449Z,14.40
2019-04-06T06:59:11.794Z,14.30
2019-04-06T07:01:41.934Z,14.50
2019-04-06T07:04:11.813Z,14.90
2019-04-06T07:11:39.314Z,15.10
2019-04-06T07:14:08.840Z,15.40
2019-04-06T07:19:07.244Z,15.30
2019-04-06T07:24:06.003Z,15.30
2019-04-06T07:26:35.665Z,15.10
2019-04-06T07:29:05.303Z,15.60
2019-04-06T07:31:34.794Z,15.80
2019-04-06T07:34:04.662Z,15.80
2019-04-06T07:36:36.526Z,16.80
2019-04-06T07:39:07.152Z,17.40
2019-04-06T07:41:36.618Z,16.70
2019-04-06T07:44:06.485Z,16.80
2019-04-06T07:46:36.018Z,16.30
2019-04-06T07:49:09.169Z,16.50
2019-04-06T07:51:36.972Z,16.80
2019-04-06T07:54:06.409Z,17.60
2019-04-06T07:56:36.212Z,17.20
2019-04-06T07:59:05.829Z,18.20
2019-04-06T08:01:35.299Z,18.40
2019-04-06T08:04:05.882Z,18.80
2019-04-06T08:06:35.443Z,18.70
2019-04-06T08:09:07.446Z,18.60
2019-04-06T08:11:37.703Z,18.20
2019-04-06T08:14:07.640Z,18.50
2019-04-06T08:16:37.172Z,18.60
2019-04-06T08:19:06.862Z,19.00
2019-04-06T08:21:36.381Z,18.50
2019-04-06T08:24:05.920Z,19.00
2019-04-06T08:26:35.914Z,18.70
2019-04-06T08:29:05.840Z,19.60
2019-04-06T08:31:35.523Z,20.20
2019-04-06T08:34:05.297Z,19.70
2019-04-06T08:36:35.081Z,18.90
2019-04-06T08:39:06.825Z,19.50
2019-04-06T08:41:36.515Z,19.40
2019-04-06T08:44:06.176Z,19.20
2019-04-06T08:46:35.696Z,19.30
2019-04-06T08:49:05.820Z,19.50
2019-04-06T08:51:35.487Z,19.50
2019-04-06T08:54:04.961Z,20.10
2019-04-06T08:59:11.256Z,19.40
2019-04-06T09:01:35.004Z,19.70
2019-04-06T09:04:04.786Z,19.60
2019-04-06T09:06:34.279Z,20.00
2019-04-06T09:11:34.552Z,19.70
2019-04-06T09:14:03.991Z,20.30
2019-04-06T09:16:33.814Z,20.50
2019-04-06T09:21:32.489Z,19.40
2019-04-06T09:24:02.303Z,19.60
2019-04-06T09:26:32.008Z,20.10
2019-04-06T09:29:01.874Z,20.20
2019-04-06T09:31:31.503Z,20.10
2019-04-06T09:34:01.358Z,20.90
2019-04-06T09:36:30.781Z,20.50
2019-04-06T09:39:00.550Z,20.50
2019-04-06T09:41:30.288Z,21.20
2019-04-06T09:44:00.152Z,21.00
2019-04-06T09:46:39.120Z,20.40
2019-04-06T09:49:34.828Z,20.30
2019-04-06T09:52:13.427Z,20.10
2019-04-06T09:55:08.016Z,21.10
2019-04-06T09:58:02.643Z,21.30
2019-04-06T10:00:40.807Z,20.50
2019-04-06T10:03:35.712Z,21.50
2019-04-06T10:06:36.543Z,21.30
2019-04-06T10:09:31.565Z,21.60
2019-04-06T10:12:25.976Z,21.80
2019-04-06T10:15:14.979Z,21.30
2019-04-06T10:18:19.384Z,20.90
2019-04-06T10:21:10.784Z,21.90
2019-04-06T10:23:47.944Z,22.10
2019-04-06T10:29:20.598Z,20.90
2019-04-06T10:32:13.369Z,21.60
2019-04-06T10:35:01.941Z,22.00
2019-04-06T10:37:45.333Z,20.80
2019-04-06T10:40:32.428Z,20.90
2019-04-06T10:43:36.088Z,20.70
2019-04-06T10:46:16.522Z,20.80
2019-04-06T10:48:54.529Z,22.00
2019-04-06T10:51:34.380Z,23.20
2019-04-06T10:54:09.575Z,22.70
2019-04-06T11:00:01.091Z,21.70
2019-04-06T11:02:42.849Z,22.00
2019-04-06T11:05:18.394Z,22.90
2019-04-06T11:08:05.610Z,22.90
2019-04-06T11:10:45.248Z,22.00
2019-04-06T11:13:42.908Z,22.10
2019-04-06T11:16:49.849Z,21.80
2019-04-06T11:19:56.462Z,22.30
2019-04-06T11:22:47.283Z,21.70
2019-04-06T11:25:38.711Z,22.50
2019-04-06T11:28:26.373Z,21.90
2019-04-06T11:31:18.101Z,21.90
2019-04-06T11:37:14.104Z,22.40
2019-04-06T11:39:54.044Z,22.70
2019-04-06T11:42:42.555Z,23.20
2019-04-06T11:45:33.749Z,22.60
2019-04-06T11:48:28.461Z,23.40
2019-04-06T11:51:36.308Z,24.10
2019-04-06T11:54:38.834Z,23.70
2019-04-06T11:57:17.027Z,23.50
2019-04-06T12:00:04.260Z,24.20
2019-04-06T12:02:52.884Z,24.20
2019-04-06T12:05:44.026Z,23.50
2019-04-06T12:08:25.111Z,23.80
2019-04-06T12:11:26.263Z,23.60
2019-04-06T12:14:14.793Z,22.90
2019-04-06T12:17:02.299Z,24.00
2019-04-06T12:19:58.546Z,23.70
2019-04-06T12:22:34.537Z,23.80
2019-04-06T12:25:21.163Z,24.10
2019-04-06T12:28:02.273Z,23.70
2019-04-06T12:30:46.851Z,23.80
2019-04-06T12:39:31.486Z,23.40
2019-04-06T12:42:38.678Z,23.60
2019-04-06T12:45:26.177Z,24.40
2019-04-06T12:48:14.599Z,24.70
2019-04-06T12:51:01.972Z,26.60
2019-04-06T12:53:48.970Z,25.30
2019-04-06T12:56:35.970Z,24.10
2019-04-06T12:59:27.849Z,24.60
2019-04-06T13:08:01.753Z,23.80
2019-04-06T13:10:44.125Z,24.40
2019-04-06T13:13:32.538Z,24.70
2019-04-06T13:16:15.706Z,24.60
2019-04-06T13:24:37.690Z,24.30
2019-04-06T13:27:32.247Z,24.80
2019-04-06T13:30:24.088Z,24.40
2019-04-06T15:09:51.909Z,19.80
2019-04-06T15:17:55.423Z,18.80
2019-04-06T15:23:36.834Z,18.40
2019-04-06T15:29:17.289Z,17.50
2019-04-06T15:32:20.174Z,17.40
2019-04-06T15:35:21.039Z,17.30
2019-04-06T15:40:59.734Z,17.10
2019-04-06T15:44:08.005Z,17.00
2019-04-06T15:47:00.277Z,16.90
2019-04-06T15:49:45.277Z,16.90
2019-04-06T15:52:33.707Z,16.70
2019-04-06T16:00:35.803Z,16.40
2019-04-06T16:06:22.311Z,16.40
2019-04-06T16:09:20.004Z,16.40
2019-04-06T16:12:12.185Z,16.40
2019-04-06T16:15:09.784Z,16.10
2019-04-06T16:17:57.279Z,16.00
2019-04-06T16:20:41.566Z,15.90
2019-04-06T16:23:18.486Z,16.00
2019-04-06T16:26:19.204Z,15.90
2019-04-06T16:29:13.968Z,15.70
2019-04-06T16:32:11.558Z,15.70
2019-04-06T16:40:50.477Z,15.50
2019-04-06T16:43:44.984Z,15.40
2019-04-06T16:46:37.160Z,15.20
2019-04-06T16:49:19.765Z,15.20
2019-04-06T16:52:11.436Z,15.10
2019-04-06T16:54:56.756Z,15.20
2019-04-06T16:57:44.522Z,15.10
2019-04-06T17:00:29.764Z,14.90
2019-04-06T17:03:08.806Z,14.80
2019-04-06T17:05:58.318Z,14.70
2019-04-06T17:08:54.719Z,14.60
2019-04-06T17:11:43.176Z,14.40
2019-04-06T17:14:29.836Z,14.20
2019-04-06T17:17:22.054Z,14.20
2019-04-06T17:20:16.908Z,14.10
2019-04-06T17:23:04.242Z,14.00
2019-04-06T17:25:53.138Z,13.90
2019-04-06T17:28:54.268Z,13.70
2019-04-06T17:31:40.348Z,13.50
2019-04-06T17:34:25.828Z,13.40
2019-04-06T17:37:05.218Z,13.30
2019-04-06T17:39:49.419Z,13.10
2019-04-06T17:42:25.084Z,13.00
2019-04-06T17:45:12.607Z,12.80
2019-04-06T17:48:06.273Z,12.60
2019-04-06T17:51:04.675Z,12.50
2019-04-06T17:54:11.846Z,12.40
2019-04-06T17:57:09.566Z,12.40
2019-04-06T17:59:56.278Z,12.40
2019-04-06T18:02:51.094Z,12.30
2019-04-06T19:04:18.319Z,10.20
2019-04-06T19:06:48.154Z,10.10
2019-04-06T19:09:23.021Z,10.00
2019-04-06T19:11:55.111Z,9.90
2019-04-06T19:14:20.474Z,9.80
2019-04-06T19:16:50.263Z,9.70
2019-04-06T19:19:19.804Z,9.60
2019-04-06T19:21:49.308Z,9.60
2019-04-06T19:24:19.153Z,9.70
2019-04-06T19:26:48.895Z,9.60
2019-04-06T19:29:18.578Z,9.60
2019-04-06T19:31:48.028Z,9.50
2019-04-06T19:34:17.507Z,9.50
2019-04-06T19:36:47.255Z,9.50
2019-04-06T19:39:16.783Z,9.50
2019-04-06T19:41:46.201Z,9.50
2019-04-06T19:44:16.371Z,9.60
2019-04-06T19:46:46.262Z,9.50
2019-04-06T19:49:15.702Z,9.50
2019-04-06T19:51:46.751Z,9.40
2019-04-06T19:54:16.486Z,9.40
2019-04-06T19:56:46.373Z,9.40
2019-04-06T19:59:16.361Z,9.40
2019-04-06T20:01:47.074Z,9.40
2019-04-06T20:04:16.821Z,9.30
2019-04-06T20:06:46.669Z,9.10
2019-04-06T20:09:16.084Z,9.00
2019-04-06T20:11:45.605Z,9.00
2019-04-06T20:14:16.235Z,8.80
2019-04-06T20:16:45.663Z,8.70
2019-04-06T20:19:15.237Z,8.60
2019-04-06T20:21:45.330Z,8.70
2019-04-06T20:24:15.096Z,8.60
2019-04-06T20:26:44.549Z,8.40
2019-04-06T20:29:14.037Z,8.40
2019-04-06T20:31:44.570Z,8.40
2019-04-06T20:34:14.262Z,8.40
2019-04-06T20:36:43.683Z,8.30
2019-04-06T20:39:13.440Z,8.50
2019-04-06T20:41:42.896Z,8.50
2019-04-06T20:44:12.386Z,8.50
2019-04-06T20:46:42.258Z,8.50
2019-04-06T20:49:11.910Z,8.50
2019-04-06T20:51:41.504Z,8.50
2019-04-06T20:54:10.953Z,8.50
2019-04-06T20:56:52.051Z,8.60
2019-04-06T20:59:24.552Z,8.60
2019-04-06T21:01:54.326Z,8.60
2019-04-06T21:04:24.723Z,8.70
2019-04-06T21:06:54.936Z,8.70
2019-04-06T21:09:24.640Z,8.70
2019-04-06T21:11:54.630Z,9.00
2019-04-06T21:14:24.092Z,9.00
2019-04-06T21:16:53.605Z,9.00
2019-04-06T21:19:23.782Z,9.10
2019-04-06T21:21:53.646Z,9.20
2019-04-06T21:24:23.463Z,9.20
2019-04-06T21:26:53.259Z,9.40
2019-04-06T21:29:23.350Z,9.30
2019-04-06T21:31:53.548Z,9.30
2019-04-06T21:34:22.997Z,9.30
2019-04-06T21:36:52.816Z,9.20
2019-04-06T21:39:22.392Z,9.30
2019-04-06T21:41:52.175Z,9.20
2019-04-06T21:44:22.042Z,9.20
2019-04-06T21:46:51.645Z,9.20
2019-04-06T21:49:21.680Z,9.20
2019-04-06T21:51:51.578Z,9.20
2019-04-06T21:54:21.229Z,9.10
2019-04-06T21:56:51.782Z,9.10
2019-04-06T21:59:21.642Z,9.20
2019-04-06T22:01:51.389Z,9.00
2019-04-06T22:04:25.920Z,9.00
2019-04-06T22:06:52.721Z,8.90
2019-04-06T22:09:23.156Z,8.80
2019-04-06T22:11:53.102Z,8.70
2019-04-06T22:14:22.940Z,8.60
2019-04-06T22:16:52.450Z,8.60
2019-04-06T22:19:22.604Z,8.60
2019-04-06T22:21:52.227Z,8.70
2019-04-06T22:24:21.737Z,8.70
2019-04-06T22:26:51.868Z,8.80
2019-04-06T22:29:22.171Z,8.60
2019-04-06T22:31:52.010Z,8.50
2019-04-06T22:34:21.779Z,8.30
2019-04-06T22:36:51.600Z,8.30
2019-04-06T22:39:21.510Z,8.30
2019-04-06T22:41:51.193Z,8.20
2019-04-06T22:44:21.043Z,8.10
2019-04-06T22:46:51.389Z,7.90
2019-04-06T22:49:21.459Z,7.80
2019-04-06T22:51:50.932Z,7.70
2019-04-06T22:54:21.273Z,7.50
2019-04-06T22:56:51.260Z,7.40
2019-04-06T22:59:20.684Z,7.30
2019-04-06T23:01:50.491Z,7.20
2019-04-06T23:04:48.606Z,7.10
2019-04-06T23:07:16.924Z,7.00
2019-04-06T23:09:46.688Z,6.90
2019-04-06T23:12:16.758Z,6.80
2019-04-06T23:14:46.472Z,6.80
2019-04-06T23:17:16.908Z,6.80
2019-04-06T23:19:46.907Z,6.70
2019-04-06T23:22:16.842Z,6.60
2019-04-06T23:24:46.829Z,6.50
2019-04-06T23:27:16.540Z,6.50
2019-04-06T23:29:46.222Z,6.50
2019-04-06T23:32:16.010Z,6.40
2019-04-06T23:34:58.123Z,6.30
2019-04-06T23:37:19.431Z,6.30
2019-04-06T23:39:49.221Z,6.20
2019-04-06T23:42:18.560Z,6.20
2019-04-06T23:44:48.782Z,6.10
2019-04-06T23:47:19.092Z,6.00
2019-04-06T23:49:49.527Z,5.90
2019-04-06T23:52:19.473Z,5.90
2019-04-06T23:54:49.210Z,5.80
2019-04-06T23:57:18.699Z,5.70
2019-04-06T23:59:48.101Z,5.70
